createdAt,value
2023-02-17T00:02:25.614Z,81.36
2023-02-17T00:05:10.690Z,81.80
2023-02-17T00:07:55.708Z,82.39
2023-02-17T00:10:41.111Z,82.53
2023-02-17T00:13:26.680Z,83.26
2023-02-17T00:16:16.356Z,83.15
2023-02-17T00:19:01.943Z,82.90
2023-02-17T00:21:47.025Z,83.16
2023-02-17T00:24:34.202Z,82.90
2023-02-17T00:27:20.044Z,82.97
2023-02-17T00:30:06.493Z,83.50
2023-02-17T00:32:51.422Z,82.77
2023-02-17T00:35:40.896Z,82.60
2023-02-17T00:38:26.123Z,82.67
2023-02-17T00:41:11.249Z,82.72
2023-02-17T00:43:56.925Z,82.87
2023-02-17T00:46:42.048Z,82.46
2023-02-17T00:49:27.521Z,82.90
2023-02-17T00:52:12.568Z,82.79
2023-02-17T00:54:57.397Z,83.02
2023-02-17T00:57:42.253Z,82.46
2023-02-17T01:00:27.231Z,83.36
2023-02-17T01:03:12.395Z,83.02
2023-02-17T01:05:57.331Z,83.00
2023-02-17T01:08:42.748Z,82.26
2023-02-17T01:11:30.603Z,82.45
2023-02-17T01:14:17.843Z,83.24
2023-02-17T01:17:02.918Z,82.57
2023-02-17T01:19:47.828Z,83.03
2023-02-17T01:22:33.288Z,82.84
2023-02-17T01:25:18.194Z,83.01
2023-02-17T01:28:03.756Z,82.92
2023-02-17T01:30:49.928Z,83.05
2023-02-17T01:33:34.855Z,83.11
2023-02-17T01:36:20.594Z,83.68
2023-02-17T01:39:05.324Z,84.14
2023-02-17T01:41:50.265Z,83.96
2023-02-17T01:44:35.697Z,84.06
2023-02-17T01:47:20.475Z,84.14
2023-02-17T01:50:05.970Z,84.38
2023-02-17T01:52:53.645Z,84.34
2023-02-17T01:55:41.104Z,84.09
2023-02-17T01:58:28.101Z,84.72
2023-02-17T02:01:13.198Z,84.62
2023-02-17T02:04:01.288Z,85.41
2023-02-17T02:06:47.457Z,85.11
2023-02-17T02:09:39.557Z,85.21
2023-02-17T02:12:28.985Z,85.84
2023-02-17T02:15:18.344Z,85.38
2023-02-17T02:18:33.186Z,85.88
2023-02-17T02:21:36.916Z,85.57
2023-02-17T02:24:25.924Z,85.38
2023-02-17T02:27:26.265Z,85.60
2023-02-17T02:30:35.634Z,85.49
2023-02-17T02:33:47.606Z,86.24
2023-02-17T02:36:47.833Z,85.75
2023-02-17T02:39:38.601Z,86.12
2023-02-17T02:42:24.739Z,85.24
2023-02-17T02:45:10.499Z,85.68
2023-02-17T02:47:57.359Z,86.14
2023-02-17T02:51:10.021Z,86.12
2023-02-17T02:54:10.366Z,85.92
2023-02-17T02:57:06.949Z,86.29
2023-02-17T03:00:07.300Z,86.56
2023-02-17T03:03:10.595Z,86.64
2023-02-17T03:06:02.696Z,86.77
2023-02-17T03:08:54.432Z,86.65
2023-02-17T03:11:42.156Z,86.73
2023-02-17T03:14:28.489Z,86.50
2023-02-17T03:17:13.571Z,87.21
2023-02-17T03:20:00.603Z,87.40
2023-02-17T03:22:47.310Z,87.88
2023-02-17T03:25:32.318Z,87.64
2023-02-17T03:28:18.473Z,87.80
2023-02-17T03:31:04.005Z,87.77
2023-02-17T03:33:49.030Z,87.30
2023-02-17T03:36:34.082Z,87.70
2023-02-17T03:39:19.122Z,87.91
2023-02-17T03:42:04.013Z,87.90
2023-02-17T03:44:49.255Z,88.26
2023-02-17T03:47:34.194Z,87.95
2023-02-17T03:50:19.186Z,87.67
2023-02-17T03:53:05.090Z,87.70
2023-02-17T03:55:49.951Z,87.72
2023-02-17T03:58:34.818Z,88.59
2023-02-17T04:01:20.022Z,87.81
2023-02-17T04:04:05.231Z,87.81
2023-02-17T04:06:50.173Z,87.58
2023-02-17T04:09:34.909Z,87.58
2023-02-17T04:12:19.755Z,88.36
2023-02-17T04:15:05.446Z,88.12
2023-02-17T04:17:50.341Z,87.27
2023-02-17T04:20:35.481Z,86.40
2023-02-17T04:23:20.553Z,86.70
2023-02-17T04:26:08.628Z,87.13
2023-02-17T04:28:54.359Z,87.50
2023-02-17T04:31:39.239Z,87.22
2023-02-17T04:34:24.555Z,87.35
2023-02-17T04:37:09.630Z,87.48
2023-02-17T04:39:54.511Z,87.28
2023-02-17T04:42:39.339Z,87.79
2023-02-17T04:45:24.294Z,88.12
2023-02-17T04:48:09.872Z,88.22
2023-02-17T04:50:54.699Z,88.57
2023-02-17T04:53:40.123Z,88.07
2023-02-17T04:56:25.209Z,89.32
2023-02-17T04:59:10.243Z,88.91
2023-02-17T05:01:55.101Z,89.31
2023-02-17T05:04:40.646Z,89.23
2023-02-17T05:07:25.776Z,89.14
2023-02-17T05:10:12.296Z,89.23
2023-02-17T05:12:57.112Z,88.39
2023-02-17T05:15:46.012Z,88.60
2023-02-17T05:18:30.938Z,88.68
2023-02-17T05:21:15.960Z,87.82
2023-02-17T05:24:00.883Z,88.42
2023-02-17T05:26:45.954Z,88.37
2023-02-17T05:29:31.164Z,89.07
2023-02-17T05:32:16.117Z,88.63
2023-02-17T05:35:01.012Z,89.74
2023-02-17T05:37:46.169Z,90.00
2023-02-17T05:40:31.214Z,90.10
2023-02-17T05:43:16.323Z,90.08
2023-02-17T05:46:05.553Z,89.95
2023-02-17T05:48:51.012Z,90.14
2023-02-17T05:51:36.040Z,89.83
2023-02-17T05:54:21.539Z,90.34
2023-02-17T05:57:06.582Z,90.12
2023-02-17T05:59:51.712Z,90.03
2023-02-17T06:02:36.882Z,90.31
2023-02-17T06:05:22.411Z,90.40
2023-02-17T06:08:08.008Z,90.19
2023-02-17T06:10:53.468Z,90.19
2023-02-17T06:13:38.669Z,90.58
2023-02-17T06:16:23.677Z,89.70
2023-02-17T06:19:08.597Z,90.25
2023-02-17T06:21:53.444Z,89.67
2023-02-17T06:24:38.635Z,89.86
2023-02-17T06:27:23.819Z,89.01
2023-02-17T06:30:09.597Z,89.49
2023-02-17T06:32:54.669Z,89.00
2023-02-17T06:35:39.720Z,89.25
2023-02-17T06:38:24.805Z,88.79
2023-02-17T06:41:10.319Z,89.01
2023-02-17T06:43:55.706Z,89.19
2023-02-17T06:46:40.648Z,88.45
2023-02-17T06:49:25.719Z,88.11
2023-02-17T06:52:10.961Z,88.24
2023-02-17T06:54:56.756Z,87.92
2023-02-17T06:57:42.660Z,88.13
2023-02-17T07:00:27.759Z,87.83
2023-02-17T07:03:12.548Z,87.24
2023-02-17T07:05:59.234Z,86.97
2023-02-17T07:08:44.329Z,87.07
2023-02-17T07:11:32.660Z,86.55
2023-02-17T07:14:17.780Z,86.92
2023-02-17T07:17:02.883Z,85.97
2023-02-17T07:19:48.138Z,86.04
2023-02-17T07:22:33.200Z,85.54
2023-02-17T07:25:18.105Z,85.33
2023-02-17T07:28:03.406Z,85.34
2023-02-17T07:30:48.538Z,85.40
2023-02-17T07:33:34.838Z,84.72
2023-02-17T07:36:21.084Z,84.60
2023-02-17T07:39:07.324Z,85.06
2023-02-17T07:41:52.509Z,84.69
2023-02-17T07:44:37.380Z,84.84
2023-02-17T07:47:22.372Z,85.46
2023-02-17T07:50:08.124Z,85.06
2023-02-17T07:52:54.491Z,85.66
2023-02-17T07:55:39.526Z,85.50
2023-02-17T07:58:24.569Z,86.09
2023-02-17T08:01:14.366Z,85.80
2023-02-17T08:03:59.296Z,84.99
2023-02-17T08:06:44.134Z,85.00
2023-02-17T08:09:47.997Z,85.52
2023-02-17T08:12:52.052Z,84.47
2023-02-17T08:15:38.054Z,84.60
2023-02-17T08:18:23.207Z,84.74
2023-02-17T08:21:08.985Z,84.73
2023-02-17T08:23:54.905Z,84.15
2023-02-17T08:26:40.095Z,84.25
2023-02-17T08:29:25.087Z,83.18
2023-02-17T08:32:10.717Z,83.13
2023-02-17T08:34:57.023Z,82.17
2023-02-17T08:37:43.198Z,82.80
2023-02-17T08:40:29.237Z,82.23
2023-02-17T08:43:14.726Z,81.96
2023-02-17T08:46:01.448Z,82.02
2023-02-17T08:48:46.614Z,81.65
2023-02-17T08:51:31.494Z,80.96
2023-02-17T08:54:17.298Z,81.50
2023-02-17T08:57:02.161Z,81.20
2023-02-17T08:59:49.743Z,81.00
2023-02-17T09:02:34.717Z,81.21
2023-02-17T09:05:20.111Z,80.83
2023-02-17T09:08:05.421Z,80.92
2023-02-17T09:10:50.725Z,80.40
2023-02-17T09:13:35.915Z,80.72
2023-02-17T09:16:24.292Z,81.04
2023-02-17T09:19:09.396Z,81.21
2023-02-17T09:21:55.795Z,80.69
2023-02-17T09:24:40.859Z,80.94
2023-02-17T09:27:26.328Z,81.19
2023-02-17T09:30:11.917Z,81.32
2023-02-17T09:32:58.294Z,81.15
2023-02-17T09:35:44.427Z,81.06
2023-02-17T09:38:29.646Z,80.96
2023-02-17T09:41:22.427Z,81.39
2023-02-17T09:44:17.724Z,81.09
2023-02-17T09:47:09.960Z,81.11
2023-02-17T09:50:01.381Z,80.91
2023-02-17T09:52:59.595Z,81.52
2023-02-17T09:55:49.324Z,81.13
2023-02-17T09:58:40.184Z,80.72
2023-02-17T10:01:32.537Z,81.33
2023-02-17T10:04:28.121Z,81.21
2023-02-17T10:07:21.152Z,81.21
2023-02-17T10:10:11.378Z,81.51
2023-02-17T10:12:59.939Z,81.50
2023-02-17T10:15:50.832Z,81.75
2023-02-17T10:18:41.858Z,81.46
2023-02-17T10:21:32.866Z,81.46
2023-02-17T10:24:18.313Z,81.58
2023-02-17T10:27:15.570Z,81.79
2023-02-17T10:30:20.451Z,82.21
2023-02-17T10:33:05.186Z,82.09
2023-02-17T10:35:53.100Z,81.80
2023-02-17T10:38:51.482Z,82.23
2023-02-17T10:41:39.870Z,82.68
2023-02-17T10:44:25.671Z,82.37
2023-02-17T10:47:11.194Z,82.52
2023-02-17T10:49:58.048Z,82.86
2023-02-17T10:52:43.197Z,82.76
2023-02-17T10:55:44.102Z,82.56
2023-02-17T10:58:29.892Z,82.96
2023-02-17T11:01:15.227Z,82.88
2023-02-17T11:04:01.540Z,82.98
2023-02-17T11:06:57.811Z,83.18
2023-02-17T11:09:51.786Z,83.39
2023-02-17T11:12:42.455Z,83.48
2023-02-17T11:15:36.446Z,83.42
2023-02-17T11:18:28.442Z,83.45
2023-02-17T11:21:13.803Z,83.42
2023-02-17T11:24:05.107Z,82.90
2023-02-17T11:27:01.158Z,82.80
2023-02-17T11:29:46.316Z,82.61
2023-02-17T11:32:33.740Z,82.30
2023-02-17T11:35:38.653Z,82.17
2023-02-17T11:38:28.077Z,81.78
2023-02-17T11:41:13.566Z,81.90
2023-02-17T11:43:59.957Z,81.70
2023-02-17T11:46:53.139Z,81.59
2023-02-17T11:49:44.317Z,81.29
2023-02-17T11:52:43.549Z,81.14
2023-02-17T11:55:54.673Z,81.26
2023-02-17T11:58:49.963Z,81.10
2023-02-17T12:01:53.121Z,80.81
2023-02-17T12:04:51.040Z,80.46
2023-02-17T12:08:01.325Z,80.94
2023-02-17T12:10:46.404Z,80.44
2023-02-17T12:13:52.476Z,79.75
2023-02-17T12:16:55.948Z,79.60
2023-02-17T12:20:07.467Z,78.69
2023-02-17T12:23:14.419Z,78.77
2023-02-17T12:26:08.874Z,78.17
2023-02-17T12:29:41.257Z,78.36
2023-02-17T12:33:06.546Z,78.25
2023-02-17T12:35:56.005Z,78.02
2023-02-17T12:38:56.875Z,77.93
2023-02-17T12:41:58.951Z,78.14
2023-02-17T12:44:59.589Z,79.07
2023-02-17T12:48:21.459Z,77.38
2023-02-17T12:51:15.303Z,77.10
2023-02-17T12:54:17.402Z,77.79
2023-02-17T12:57:11.836Z,77.16
2023-02-17T12:59:58.438Z,77.12
2023-02-17T13:02:43.834Z,77.01
2023-02-17T13:05:38.504Z,76.78
2023-02-17T13:08:27.034Z,76.76
2023-02-17T13:11:26.121Z,76.78
2023-02-17T13:14:41.161Z,75.98
2023-02-17T13:17:32.690Z,75.97
2023-02-17T13:20:17.577Z,76.06
2023-02-17T13:23:05.685Z,76.28
2023-02-17T13:26:07.446Z,76.08
2023-02-17T13:28:54.991Z,76.57
2023-02-17T13:31:46.819Z,77.15
2023-02-17T13:34:35.066Z,78.96
2023-02-17T13:37:42.194Z,80.41
2023-02-17T13:40:36.878Z,81.82
2023-02-17T13:43:24.386Z,82.86
2023-02-17T13:46:19.806Z,82.94
2023-02-17T13:49:19.891Z,82.93
2023-02-17T13:52:12.503Z,82.77
2023-02-17T13:55:00.998Z,82.67
2023-02-17T13:57:53.036Z,83.22
2023-02-17T14:00:38.747Z,83.46
2023-02-17T14:03:34.689Z,83.08
2023-02-17T14:06:41.278Z,83.14
2023-02-17T14:09:35.747Z,83.11
2023-02-17T14:12:25.887Z,83.31
2023-02-17T14:15:19.404Z,84.56
2023-02-17T14:18:15.903Z,85.02
2023-02-17T14:21:23.370Z,85.20
2023-02-17T14:24:23.087Z,86.25
2023-02-17T14:27:09.470Z,86.26
2023-02-17T14:29:54.586Z,86.44
2023-02-17T14:32:39.413Z,86.83
2023-02-17T14:35:24.994Z,87.06
2023-02-17T14:38:23.893Z,87.51
2023-02-17T14:41:09.575Z,87.89
2023-02-17T14:43:54.683Z,87.93
2023-02-17T14:46:40.150Z,88.15
2023-02-17T14:49:25.287Z,88.39
2023-02-17T14:52:21.180Z,88.31
2023-02-17T14:55:16.131Z,88.85
2023-02-17T14:58:01.294Z,89.49
2023-02-17T15:00:46.842Z,89.35
2023-02-17T15:03:32.232Z,89.92
2023-02-17T15:06:28.827Z,89.82
2023-02-17T15:09:18.932Z,90.17
2023-02-17T15:12:19.110Z,90.20
2023-02-17T15:15:04.232Z,90.18
2023-02-17T15:17:49.771Z,90.45
2023-02-17T15:20:34.914Z,89.98
2023-02-17T15:23:23.263Z,90.04
2023-02-17T15:26:10.289Z,89.94
2023-02-17T15:28:57.010Z,90.18
2023-02-17T15:31:42.458Z,90.32
2023-02-17T15:34:31.725Z,90.48
2023-02-17T15:37:16.615Z,90.65
2023-02-17T15:40:01.416Z,90.18
2023-02-17T15:42:50.408Z,90.13
2023-02-17T15:45:36.013Z,90.04
2023-02-17T15:48:26.633Z,89.80
2023-02-17T15:51:15.101Z,89.49
2023-02-17T15:54:01.000Z,89.69
2023-02-17T15:56:51.580Z,89.99
2023-02-17T15:59:38.001Z,89.91
2023-02-17T16:02:25.072Z,90.20
2023-02-17T16:05:13.070Z,89.60
2023-02-17T16:07:58.056Z,89.29
2023-02-17T16:10:45.358Z,89.22
2023-02-17T16:13:30.742Z,89.17
2023-02-17T16:16:19.755Z,89.05
2023-02-17T16:19:04.824Z,87.98
2023-02-17T16:21:49.844Z,87.64
2023-02-17T16:24:35.536Z,86.58
2023-02-17T16:27:21.134Z,86.57
2023-02-17T16:30:23.059Z,86.42
2023-02-17T16:33:11.378Z,86.21
2023-02-17T16:35:56.740Z,85.94
2023-02-17T16:38:42.242Z,85.66
2023-02-17T16:41:30.992Z,85.18
2023-02-17T16:44:18.071Z,85.01
2023-02-17T16:47:10.099Z,84.49
2023-02-17T16:49:55.499Z,84.15
2023-02-17T16:52:40.412Z,84.47
2023-02-17T16:55:30.927Z,83.64
2023-02-17T16:58:18.589Z,83.40
2023-02-17T17:01:03.879Z,82.25
2023-02-17T17:03:48.892Z,81.68
2023-02-17T17:06:35.555Z,81.15
2023-02-17T17:09:24.115Z,81.41
2023-02-17T17:12:11.049Z,80.81
2023-02-17T17:14:55.834Z,80.40
2023-02-17T17:17:53.158Z,80.77
2023-02-17T17:20:41.609Z,80.79
2023-02-17T17:23:26.576Z,81.09
2023-02-17T17:26:17.642Z,82.59
2023-02-17T17:29:04.602Z,84.19
2023-02-17T17:31:49.547Z,84.97
2023-02-17T17:34:34.404Z,86.49
2023-02-17T17:37:19.367Z,87.43
2023-02-17T17:40:05.594Z,87.70
2023-02-17T17:42:53.685Z,87.64
2023-02-17T17:45:38.749Z,87.44
2023-02-17T17:48:25.602Z,87.88
2023-02-17T17:51:14.954Z,88.04
2023-02-17T17:54:00.049Z,87.64
2023-02-17T17:56:46.253Z,87.99
2023-02-17T17:59:31.278Z,88.19
2023-02-17T18:02:18.917Z,88.16
2023-02-17T18:05:03.963Z,87.36
2023-02-17T18:07:50.790Z,85.70
2023-02-17T18:10:38.863Z,82.10
2023-02-17T18:13:24.799Z,78.54
2023-02-17T18:16:10.499Z,74.11
2023-02-17T18:18:59.222Z,72.49
2023-02-17T18:21:44.208Z,71.22
2023-02-17T18:24:30.470Z,69.60
2023-02-17T18:27:16.503Z,68.59
2023-02-17T18:30:01.631Z,69.55
2023-02-17T18:32:55.339Z,70.22
2023-02-17T18:35:40.459Z,69.39
2023-02-17T18:38:26.219Z,69.50
2023-02-17T18:41:26.248Z,68.89
2023-02-17T18:44:18.172Z,69.01
2023-02-17T18:47:03.672Z,68.88
2023-02-17T18:49:53.003Z,69.95
2023-02-17T18:52:46.349Z,68.49
2023-02-17T18:55:35.139Z,69.50
2023-02-17T18:58:20.823Z,68.16
2023-02-17T19:01:07.812Z,69.67
2023-02-17T19:03:53.111Z,69.46
2023-02-17T19:06:39.272Z,70.42
2023-02-17T19:09:28.162Z,69.17
2023-02-17T19:12:16.985Z,69.48
2023-02-17T19:15:10.792Z,69.54
2023-02-17T19:17:57.789Z,69.72
2023-02-17T19:20:44.474Z,69.41
2023-02-17T19:23:29.662Z,70.11
2023-02-17T19:26:16.401Z,70.26
2023-02-17T19:29:01.217Z,69.44
2023-02-17T19:31:46.544Z,69.52
2023-02-17T19:34:33.164Z,68.90
2023-02-17T19:37:22.166Z,67.97
2023-02-17T19:40:11.989Z,67.60
2023-02-17T19:42:57.876Z,67.49
2023-02-17T19:45:45.845Z,68.19
2023-02-17T19:48:35.305Z,68.38
2023-02-17T19:51:22.634Z,70.18
2023-02-17T19:54:08.196Z,69.74
2023-02-17T19:56:54.646Z,70.42
2023-02-17T19:59:39.468Z,69.47
2023-02-17T20:02:25.614Z,68.56
2023-02-17T20:05:10.643Z,69.54
2023-02-17T20:07:57.152Z,69.54
2023-02-17T20:10:43.287Z,70.65
2023-02-17T20:13:30.403Z,71.61
2023-02-17T20:16:20.080Z,71.00
2023-02-17T20:19:06.099Z,70.95
2023-02-17T20:21:51.206Z,70.98
2023-02-17T20:24:37.224Z,70.88
2023-02-17T20:27:23.036Z,69.91
2023-02-17T20:30:08.549Z,69.58
2023-02-17T20:32:54.608Z,70.37
2023-02-17T20:35:40.625Z,70.54
2023-02-17T20:38:28.750Z,70.12
2023-02-17T20:41:21.364Z,70.60
2023-02-17T20:44:08.557Z,69.94
2023-02-17T20:46:54.547Z,70.45
2023-02-17T20:49:40.150Z,69.83
2023-02-17T20:52:26.272Z,69.80
2023-02-17T20:55:14.512Z,69.82
2023-02-17T20:58:00.262Z,70.54
2023-02-17T21:00:46.111Z,70.74
2023-02-17T21:03:32.258Z,70.11
2023-02-17T21:06:24.712Z,70.79
2023-02-17T21:09:18.221Z,70.10
2023-02-17T21:12:03.992Z,69.78
2023-02-17T21:14:48.803Z,70.78
2023-02-17T21:17:33.719Z,70.39
2023-02-17T21:20:22.127Z,70.37
2023-02-17T21:23:07.991Z,71.01
2023-02-17T21:25:54.152Z,69.66
2023-02-17T21:28:40.146Z,70.02
2023-02-17T21:31:28.937Z,70.18
2023-02-17T21:34:15.364Z,70.33
2023-02-17T21:37:01.061Z,70.60
2023-02-17T21:39:46.220Z,70.90
2023-02-17T21:42:52.721Z,70.63
2023-02-17T21:45:38.285Z,70.82
2023-02-17T21:48:24.447Z,69.68
2023-02-17T21:51:11.943Z,71.01
2023-02-17T21:53:57.821Z,71.45
2023-02-17T21:56:42.572Z,70.92
2023-02-17T21:59:27.513Z,71.19
2023-02-17T22:02:12.964Z,71.04
2023-02-17T22:04:58.713Z,70.51
2023-02-17T22:07:49.604Z,70.38
2023-02-17T22:10:39.270Z,70.16
2023-02-17T22:13:24.422Z,70.57
2023-02-17T22:16:09.929Z,69.89
2023-02-17T22:18:54.930Z,71.18
2023-02-17T22:21:40.970Z,70.99
2023-02-17T22:24:27.446Z,71.39
2023-02-17T22:27:12.655Z,70.64
2023-02-17T22:29:57.535Z,71.17
2023-02-17T22:32:43.545Z,70.78
2023-02-17T22:35:29.162Z,70.35
2023-02-17T22:38:16.172Z,70.88
2023-02-17T22:41:09.294Z,70.40
2023-02-17T22:43:56.432Z,70.58
2023-02-17T22:46:41.200Z,70.01
2023-02-17T22:49:26.566Z,71.22
2023-02-17T22:52:11.554Z,70.96
2023-02-17T22:54:56.477Z,70.22
2023-02-17T22:57:41.264Z,71.02
2023-02-17T23:00:26.114Z,70.88
2023-02-17T23:03:11.283Z,70.41
2023-02-17T23:06:01.348Z,70.26
2023-02-17T23:08:47.536Z,70.46
2023-02-17T23:11:51.310Z,70.27
2023-02-17T23:14:39.490Z,70.61
2023-02-17T23:17:24.369Z,70.80
2023-02-17T23:20:10.481Z,70.88
2023-02-17T23:22:55.626Z,71.08
2023-02-17T23:25:45.062Z,70.67
2023-02-17T23:28:30.072Z,70.70
2023-02-17T23:31:15.088Z,70.41
2023-02-17T23:34:00.139Z,70.36
2023-02-17T23:36:46.634Z,70.90
2023-02-17T23:39:31.465Z,70.76
2023-02-17T23:42:16.419Z,71.42
2023-02-17T23:45:01.205Z,70.78
2023-02-17T23:47:46.403Z,71.44
2023-02-17T23:50:32.712Z,72.19
2023-02-17T23:53:17.747Z,71.03
2023-02-17T23:56:11.258Z,71.54
2023-02-17T23:58:56.294Z,70.83
